Time,TemperatureF,DewpointF,PressureIn,WindDirection,WindDirectionDegrees,WindSpeedMPH,WindSpeedGustMPH,Humidity,HourlyPrecipIn,Conditions,Clouds,dailyrainin,SolarRadiationWatts/m^2,SoftwareType,DateUTC
2013-03-27 00:00:00,46.6,29.0,30.32,ESE,103,1.0,3.0,50,0.00,,SCT300,0.00,179.00,VWS V14.01,2013-03-27 05:00:00,
2013-03-27 00:07:00,46.8,28.7,30.32,ENE,65,2.0,7.0,49,0.00,,SCT300,0.00,179.00,VWS V14.01,2013-03-27 05:07:00,
2013-03-27 00:10:00,47.1,28.4,30.32,East,99,2.0,5.0,48,0.00,,CLR,0.00,179.00,VWS V15.00,2013-03-27 05:10:00,
2013-03-27 00:12:00,46.8,28.7,30.32,ESE,123,3.0,5.0,49,0.00,,SCT300,0.00,179.00,VWS V14.01,2013-03-27 05:12:00,
2013-03-27 00:17:00,46.7,27.6,30.32,SE,126,4.0,7.0,47,0.00,,SCT300,0.00,179.00,VWS V14.01,2013-03-27 05:17:00,
2013-03-27 00:20:00,47.0,29.8,30.33,ESE,105,3.0,4.0,51,0.00,,CLR,0.00,179.00,VWS V15.00,2013-03-27 05:20:00,
2013-03-27 00:22:00,46.5,27.4,30.32,ESE,121,4.0,6.0,47,0.00,,SCT300,0.00,179.00,VWS V14.01,2013-03-27 05:22:00,
2013-03-27 00:27:00,46.4,26.8,30.32,ESE,107,3.0,6.0,46,0.00,,SCT300,0.00,179.00,VWS V14.01,2013-03-27 05:27:00,
2013-03-27 00:30:00,46.9,29.7,30.33,ESE,109,1.0,6.0,51,0.00,,CLR,0.00,179.00,VWS V15.00,2013-03-27 05:30:00,
2013-03-27 00:32:00,46.3,26.7,30.31,East,92,2.0,6.0,46,0.00,,SCT300,0.00,179.00,VWS V14.01,2013-03-27 05:32:00,
2013-03-27 00:37:00,46.3,27.7,30.31,ENE,76,3.0,7.0,48,0.00,,SCT300,0.00,179.00,VWS V14.01,2013-03-27 05:37:00,
2013-03-27 00:40:00,46.9,29.2,30.33,SE,137,1.0,6.0,50,0.00,,CLR,0.00,179.00,VWS V15.00,2013-03-27 05:40:00,
2013-03-27 00:42:00,46.2,28.1,30.31,ENE,67,6.0,11.0,49,0.00,,SCT300,0.00,179.00,VWS V14.01,2013-03-27 05:42:00,
2013-03-27 00:47:00,46.1,28.0,30.31,SE,132,2.0,11.0,49,0.00,,SCT300,0.00,179.00,VWS V14.01,2013-03-27 05:47:00,
2013-03-27 00:50:00,46.8,29.2,30.33,ESE,123,3.0,5.0,50,0.00,,CLR,0.00,179.00,VWS V15.00,2013-03-27 05:50:00,
2013-03-27 00:52:00,46.1,27.5,30.31,SE,124,4.0,10.0,48,0.00,,SCT300,0.00,179.00,VWS V14.01,2013-03-27 05:52:00,
2013-03-27 00:57:00,46.1,27.5,30.31,ESE,107,2.0,10.0,48,0.00,,SCT300,0.00,179.00,VWS V14.01,2013-03-27 05:57:00,
2013-03-27 01:00:00,46.6,29.0,30.32,ESE,103,3.0,9.0,50,0.00,,CLR,0.00,179.00,VWS V15.00,2013-03-27 06:00:00,
2013-03-27 01:02:00,46.1,27.0,30.31,South,169,4.0,6.0,47,0.00,,SCT300,0.00,179.00,VWS V14.01,2013-03-27 06:02:00,
2013-03-27 01:07:00,46.1,27.0,30.31,East,96,3.0,6.0,47,0.00,,SCT300,0.00,179.00,VWS V14.01,2013-03-27 06:07:00,
2013-03-27 01:10:00,46.8,28.7,30.32,ESE,121,3.0,7.0,49,0.00,,CLR,0.00,179.00,VWS V15.00,2013-03-27 06:10:00,
2013-03-27 01:12:00,46.0,26.9,30.31,ENE,73,1.0,11.0,47,0.00,,SCT300,0.00,179.00,VWS V14.01,2013-03-27 06:12:00,
2013-03-27 01:17:00,45.9,27.3,30.30,SSE,149,5.0,11.0,48,0.00,,SCT300,0.00,179.00,VWS V14.01,2013-03-27 06:17:00,
2013-03-27 01:20:00,46.5,26.9,30.32,ESE,105,2.0,7.0,46,0.00,,CLR,0.00,179.00,VWS V15.00,2013-03-27 06:20:00,
2013-03-27 01:22:00,45.9,27.8,30.30,SE,134,4.0,9.0,49,0.00,,SCT300,0.00,179.00,VWS V14.01,2013-03-27 06:22:00,
2013-03-27 01:27:00,45.9,27.3,30.30,ESE,123,3.0,10.0,48,0.00,,SCT300,0.00,179.00,VWS V14.01,2013-03-27 06:27:00,
2013-03-27 01:30:00,46.3,26.7,30.31,ESE,111,1.0,7.0,46,0.00,,CLR,0.00,179.00,VWS V15.00,2013-03-27 06:30:00,
2013-03-27 01:32:00,45.8,26.7,30.30,SE,124,4.0,7.0,47,0.00,,SCT300,0.00,179.00,VWS V14.01,2013-03-27 06:32:00,
2013-03-27 01:37:00,45.5,25.9,30.30,SE,139,4.0,11.0,46,0.00,,FEW300,0.00,179.00,VWS V14.01,2013-03-27 06:37:00,
2013-03-27 01:40:00,46.2,28.1,30.31,ESE,108,4.0,7.0,49,0.00,,CLR,0.00,179.00,VWS V15.00,2013-03-27 06:40:00,
2013-03-27 01:42:00,45.5,26.5,30.30,ESE,117,4.0,5.0,47,0.00,,FEW300,0.00,179.00,VWS V14.01,2013-03-27 06:42:00,
2013-03-27 01:47:00,45.4,25.9,30.29,East,81,3.0,10.0,46,0.00,,FEW300,0.00,179.00,VWS V14.01,2013-03-27 06:47:00,
2013-03-27 01:50:00,46.1,27.5,30.31,East,83,4.0,11.0,48,0.00,,CLR,0.00,179.00,VWS V15.00,2013-03-27 06:50:00,
2013-03-27 01:52:00,45.2,26.2,30.29,SSE,153,5.0,5.0,47,0.00,,FEW300,0.00,179.00,VWS V14.01,2013-03-27 06:52:00,
2013-03-27 01:57:00,45.1,26.6,30.29,East,82,3.0,6.0,48,0.00,,FEW300,0.00,179.00,VWS V14.01,2013-03-27 06:57:00,
2013-03-27 02:00:00,46.0,27.4,30.31,SE,132,1.0,10.0,48,0.00,,CLR,0.00,179.00,VWS V15.00,2013-03-27 07:00:00,
2013-03-27 02:02:00,45.0,27.0,30.29,SSE,149,2.0,6.0,49,0.00,,FEW300,0.00,179.00,VWS V14.01,2013-03-27 07:02:00,
2013-03-27 02:07:00,44.8,26.8,30.29,ENE,78,1.0,6.0,49,0.00,,FEW300,0.00,179.00,VWS V14.01,2013-03-27 07:07:00,
2013-03-27 02:10:00,46.0,26.9,30.31,ESE,117,2.0,6.0,47,0.00,,CLR,0.00,179.00,VWS V15.00,2013-03-27 07:10:00,
2013-03-27 02:12:00,44.8,28.3,30.29,South,183,2.0,5.0,52,0.00,,FEW300,0.00,179.00,VWS V14.01,2013-03-27 07:12:00,
2013-03-27 02:17:00,44.8,27.3,30.29,South,191,1.0,9.0,50,0.00,,FEW300,0.00,179.00,VWS V14.01,2013-03-27 07:17:00,
2013-03-27 02:20:00,45.9,27.8,30.30,ESE,121,5.0,11.0,49,0.00,,CLR,0.00,179.00,VWS V15.00,2013-03-27 07:20:00,
2013-03-27 02:22:00,44.8,28.3,30.29,SE,126,6.0,7.0,52,0.00,,FEW300,0.00,179.00,VWS V14.01,2013-03-27 07:22:00,
2013-03-27 02:27:00,44.7,28.2,30.29,SE,145,4.0,7.0,52,0.00,,FEW300,0.00,179.00,VWS V14.01,2013-03-27 07:27:00,
2013-03-27 02:30:00,45.9,26.8,30.30,ESE,108,7.0,10.0,47,0.00,,CLR,0.00,179.00,VWS V15.00,2013-03-27 07:30:00,
2013-03-27 02:32:00,44.6,27.6,30.29,ESE,108,4.0,7.0,51,0.00,,FEW300,0.00,179.00,VWS V14.01,2013-03-27 07:32:00,
2013-03-27 02:37:00,44.5,28.0,30.29,ESE,108,6.0,8.0,52,0.00,,FEW300,0.00,179.00,VWS V14.01,2013-03-27 07:37:00,
2013-03-27 02:40:00,45.5,25.4,30.30,East,96,4.0,11.0,45,0.00,,CLR,0.00,179.00,VWS V15.00,2013-03-27 07:40:00,
2013-03-27 02:42:00,44.6,28.1,30.29,SE,143,3.0,9.0,52,0.00,,FEW300,0.00,179.00,VWS V14.01,2013-03-27 07:42:00,
2013-03-27 02:47:00,44.5,27.5,30.29,SE,135,3.0,10.0,51,0.00,,FEW300,0.00,179.00,VWS V14.01,2013-03-27 07:47:00,
2013-03-27 02:50:00,45.3,26.3,30.29,SE,128,2.0,10.0,47,0.00,,CLR,0.00,179.00,VWS V15.00,2013-03-27 07:50:00,
2013-03-27 02:52:00,44.4,27.9,30.29,East,101,4.0,6.0,52,0.00,,FEW300,0.00,179.00,VWS V14.01,2013-03-27 07:52:00,
2013-03-27 02:57:00,44.2,27.2,30.29,SSE,149,4.0,9.0,51,0.00,,FEW300,0.00,179.00,VWS V14.01,2013-03-27 07:57:00,
2013-03-27 03:00:00,45.0,27.0,30.29,SE,146,3.0,6.0,49,0.00,,CLR,0.00,179.00,VWS V15.00,2013-03-27 08:00:00,
2013-03-27 03:02:00,44.1,27.6,30.28,SSE,153,4.0,9.0,52,0.00,,FEW300,0.00,179.00,VWS V14.01,2013-03-27 08:02:00,
2013-03-27 03:07:00,44.0,27.0,30.28,ESE,123,9.0,9.0,51,0.00,,FEW300,0.00,179.00,VWS V14.01,2013-03-27 08:07:00,
2013-03-27 03:10:00,44.7,27.2,30.29,ESE,108,4.0,6.0,50,0.00,,CLR,0.00,179.00,VWS V15.00,2013-03-27 08:10:00,
2013-03-27 03:12:00,43.9,27.9,30.28,SE,146,3.0,7.0,53,0.00,,FEW300,0.00,179.00,VWS V14.01,2013-03-27 08:12:00,
2013-03-27 03:17:00,43.8,27.3,30.28,SE,139,5.0,11.0,52,0.00,,FEW300,0.00,179.00,VWS V14.01,2013-03-27 08:17:00,
2013-03-27 03:20:00,44.8,28.3,30.29,SE,126,5.0,9.0,52,0.00,,CLR,0.00,179.00,VWS V15.00,2013-03-27 08:20:00,
2013-03-27 03:22:00,43.7,28.6,30.28,South,175,2.0,4.0,55,0.00,,FEW300,0.00,179.00,VWS V14.01,2013-03-27 08:22:00,
2013-03-27 03:28:00,43.5,28.0,30.28,South,180,3.0,13.0,54,0.00,,FEW300,0.00,179.00,VWS V14.01,2013-03-27 08:28:00,
2013-03-27 03:30:00,44.6,28.1,30.29,SE,144,4.0,7.0,52,0.00,,CLR,0.00,179.00,VWS V15.00,2013-03-27 08:30:00,
2013-03-27 03:32:00,43.4,28.3,30.27,South,173,2.0,9.0,55,0.00,,FEW300,0.00,179.00,VWS V14.01,2013-03-27 08:32:00,
2013-03-27 03:37:00,43.4,28.3,30.27,ESE,116,4.0,10.0,55,0.00,,FEW300,0.00,179.00,VWS V14.01,2013-03-27 08:37:00,
2013-03-27 03:40:00,44.6,28.1,30.29,SSE,147,4.0,11.0,52,0.00,,CLR,0.00,179.00,VWS V15.00,2013-03-27 08:40:00,
2013-03-27 03:42:00,43.3,28.7,30.27,SSE,153,7.0,10.0,56,0.00,,FEW300,0.00,179.00,VWS V14.01,2013-03-27 08:42:00,
2013-03-27 03:47:00,43.4,28.3,30.27,South,169,3.0,13.0,55,0.00,,FEW300,0.00,179.00,VWS V14.01,2013-03-27 08:47:00,
2013-03-27 03:50:00,44.4,27.9,30.29,ESE,105,6.0,10.0,52,0.00,,CLR,0.00,179.00,VWS V15.00,2013-03-27 08:50:00,
2013-03-27 03:52:00,43.4,28.3,30.27,SSE,161,4.0,9.0,55,0.00,,FEW300,0.00,179.00,VWS V14.01,2013-03-27 08:52:00,
2013-03-27 03:57:00,43.3,28.7,30.27,ESE,109,13.0,13.0,56,0.00,,FEW300,0.00,179.00,VWS V14.01,2013-03-27 08:57:00,
2013-03-27 04:00:00,44.2,27.7,30.28,SE,127,5.0,9.0,52,0.00,,CLR,0.00,179.00,VWS V15.00,2013-03-27 09:00:00,
2013-03-27 04:02:00,43.3,28.2,30.26,East,99,10.0,10.0,55,0.00,,FEW300,0.00,179.00,VWS V14.01,2013-03-27 09:02:00,
2013-03-27 04:07:00,43.2,28.6,30.26,SE,140,4.0,10.0,56,0.00,,FEW300,0.00,179.00,VWS V14.01,2013-03-27 09:07:00,
2013-03-27 04:10:00,44.0,27.0,30.28,SSE,155,6.0,9.0,51,0.00,,CLR,0.00,179.00,VWS V15.00,2013-03-27 09:10:00,
2013-03-27 04:12:00,43.1,28.5,30.26,SE,136,7.0,11.0,56,0.00,,FEW300,0.00,179.00,VWS V14.01,2013-03-27 09:12:00,
2013-03-27 04:17:00,43.1,28.9,30.26,SE,146,4.0,13.0,57,0.00,,FEW300,0.00,179.00,VWS V14.01,2013-03-27 09:17:00,
2013-03-27 04:20:00,43.8,27.8,30.28,ESE,117,3.0,11.0,53,0.00,,CLR,0.00,179.00,VWS V15.00,2013-03-27 09:20:00,
2013-03-27 04:23:00,43.1,28.9,30.26,SE,130,2.0,11.0,57,0.00,,FEW300,0.00,179.00,VWS V14.01,2013-03-27 09:23:00,
2013-03-27 04:28:00,43.0,28.4,30.26,SE,144,4.0,11.0,56,0.00,,FEW300,0.00,179.00,VWS V14.01,2013-03-27 09:28:00,
2013-03-27 04:30:00,43.5,28.4,30.27,SSE,155,2.0,13.0,55,0.00,,CLR,0.00,179.00,VWS V15.00,2013-03-27 09:30:00,
2013-03-27 04:33:00,42.9,28.3,30.26,ESE,111,3.0,10.0,56,0.00,,FEW300,0.00,179.00,VWS V14.01,2013-03-27 09:33:00,
2013-03-27 04:38:00,42.9,28.3,30.26,SE,126,5.0,10.0,56,0.00,,FEW300,0.00,179.00,VWS V14.01,2013-03-27 09:38:00,
2013-03-27 04:40:00,43.4,28.3,30.27,SSE,149,4.0,10.0,55,0.00,,CLR,0.00,179.00,VWS V15.00,2013-03-27 09:40:00,
2013-03-27 04:43:00,42.9,28.7,30.26,ESE,115,3.0,7.0,57,0.00,,FEW300,0.00,179.00,VWS V14.01,2013-03-27 09:43:00,
2013-03-27 04:48:00,43.0,29.7,30.26,SSE,147,3.0,7.0,59,0.00,,FEW300,0.00,179.00,VWS V14.01,2013-03-27 09:48:00,
2013-03-27 04:50:00,43.4,28.8,30.27,SSE,161,8.0,13.0,56,0.00,,CLR,0.00,179.00,VWS V15.00,2013-03-27 09:50:00,
2013-03-27 04:53:00,43.0,29.2,30.26,SSE,153,4.0,11.0,58,0.00,,FEW300,0.00,179.00,VWS V14.01,2013-03-27 09:53:00,
2013-03-27 04:58:00,43.1,28.9,30.26,SE,145,4.0,11.0,57,0.00,,FEW300,0.00,179.00,VWS V14.01,2013-03-27 09:58:00,
2013-03-27 05:00:00,43.3,27.8,30.26,SE,130,3.0,13.0,54,0.00,,CLR,0.00,179.00,VWS V15.00,2013-03-27 10:00:00,
2013-03-27 05:03:00,43.0,29.2,30.26,ESE,121,3.0,7.0,58,0.00,,FEW300,0.00,179.00,VWS V14.01,2013-03-27 10:03:00,
2013-03-27 05:08:00,43.1,28.9,30.26,SE,131,6.0,12.0,57,0.00,,FEW300,0.00,179.00,VWS V14.01,2013-03-27 10:08:00,
2013-03-27 05:10:00,43.1,28.9,30.26,SE,144,5.0,10.0,57,0.00,,CLR,0.00,179.00,VWS V15.00,2013-03-27 10:10:00,
2013-03-27 05:13:00,43.1,29.3,30.26,ESE,121,3.0,10.0,58,0.00,,FEW300,0.00,179.00,VWS V14.01,2013-03-27 10:13:00,
2013-03-27 05:18:00,43.1,29.8,30.26,ESE,117,10.0,10.0,59,0.00,,FEW300,0.00,179.00,VWS V14.01,2013-03-27 10:18:00,
2013-03-27 05:20:00,43.1,28.5,30.26,SSE,161,3.0,13.0,56,0.00,,CLR,0.00,179.00,VWS V15.00,2013-03-27 10:20:00,
2013-03-27 05:23:00,43.1,28.9,30.26,SE,129,7.0,8.0,57,0.00,,FEW300,0.00,179.00,VWS V14.01,2013-03-27 10:23:00,
2013-03-27 05:28:00,43.2,28.6,30.26,SSE,158,3.0,12.0,56,0.00,,FEW300,0.00,179.00,VWS V14.01,2013-03-27 10:28:00,
2013-03-27 05:30:00,43.0,28.0,30.26,SE,131,2.0,11.0,55,0.00,,CLR,0.00,179.00,VWS V15.00,2013-03-27 10:30:00,
2013-03-27 05:33:00,43.3,30.0,30.27,SSE,162,3.0,7.0,59,0.00,,FEW300,0.00,179.00,VWS V14.01,2013-03-27 10:33:00,
2013-03-27 05:38:00,43.5,30.5,30.27,SE,136,5.0,14.0,60,0.00,,FEW300,0.00,179.00,VWS V14.01,2013-03-27 10:38:00,
2013-03-27 05:40:00,42.9,27.9,30.26,SE,126,4.0,11.0,55,0.00,,CLR,0.00,179.00,VWS V15.00,2013-03-27 10:40:00,
2013-03-27 05:43:00,43.5,29.7,30.27,SSE,149,6.0,10.0,58,0.00,,FEW300,0.00,179.00,VWS V14.01,2013-03-27 10:43:00,
2013-03-27 05:48:00,43.4,30.5,30.27,ESE,104,9.0,10.0,60,0.00,,FEW300,0.00,179.00,VWS V14.01,2013-03-27 10:48:00,
2013-03-27 05:50:00,43.0,29.2,30.26,SE,144,3.0,10.0,58,0.00,,CLR,0.00,179.00,VWS V15.00,2013-03-27 10:50:00,
2013-03-27 05:53:00,43.4,30.5,30.27,SSE,167,4.0,6.0,60,0.00,,FEW300,0.00,179.00,VWS V14.01,2013-03-27 10:53:00,
2013-03-27 05:58:00,43.2,30.3,30.27,SSW,203,7.0,10.0,60,0.00,,FEW300,0.00,179.00,VWS V14.01,2013-03-27 10:58:00,
2013-03-27 06:00:00,43.0,29.2,30.26,SE,146,5.0,11.0,58,0.00,,CLR,0.00,179.00,VWS V15.00,2013-03-27 11:00:00,
2013-03-27 06:03:00,43.0,30.5,30.27,SSE,167,7.0,9.0,61,0.00,,FEW300,0.00,179.00,VWS V14.01,2013-03-27 11:03:00,
2013-03-27 06:08:00,42.8,29.9,30.27,SSW,211,3.0,10.0,60,0.00,,FEW300,0.00,179.00,VWS V14.01,2013-03-27 11:08:00,
2013-03-27 06:10:00,43.1,29.3,30.26,SE,136,5.0,12.0,58,0.00,,CLR,0.00,179.00,VWS V15.00,2013-03-27 11:10:00,
2013-03-27 06:13:00,42.4,29.9,30.27,SSE,159,3.0,8.0,61,0.00,,FEW300,0.00,179.00,VWS V14.01,2013-03-27 11:13:00,
2013-03-27 06:18:00,42.1,30.0,30.28,SE,144,2.0,10.0,62,0.00,,FEW300,0.00,179.00,VWS V14.01,2013-03-27 11:18:00,
2013-03-27 06:20:00,43.1,28.5,30.26,SSE,148,4.0,11.0,56,0.00,,CLR,0.00,179.00,VWS V15.00,2013-03-27 11:20:00,
2013-03-27 06:23:00,41.9,30.6,30.28,SSE,152,3.0,5.0,64,0.00,,FEW300,0.00,179.00,VWS V14.01,2013-03-27 11:23:00,
2013-03-27 06:28:00,41.8,31.3,30.28,SSE,167,2.0,5.0,66,0.00,,FEW300,0.00,179.00,VWS V14.01,2013-03-27 11:28:00,
2013-03-27 06:30:00,43.2,29.0,30.27,SSE,159,6.0,12.0,57,0.00,,CLR,0.00,179.00,VWS V15.00,2013-03-27 11:30:00,
2013-03-27 06:32:00,41.8,30.9,30.28,SE,129,2.0,6.0,65,0.00,,FEW300,0.00,179.00,VWS V14.01,2013-03-27 11:32:00,
2013-03-27 06:37:00,41.9,30.6,30.28,SE,131,5.0,9.0,64,0.00,,FEW300,0.00,179.00,VWS V14.01,2013-03-27 11:37:00,
2013-03-27 06:40:00,43.6,29.8,30.27,ESE,123,9.0,14.0,58,0.00,,CLR,0.00,179.00,VWS V15.00,2013-03-27 11:40:00,
2013-03-27 06:42:00,42.2,31.7,30.28,ENE,76,4.0,8.0,66,0.00,,FEW300,0.00,179.00,VWS V14.01,2013-03-27 11:42:00,
2013-03-27 06:48:00,42.2,30.9,30.29,SSE,153,5.0,11.0,64,0.00,,FEW300,0.00,179.00,VWS V14.01,2013-03-27 11:48:00,
2013-03-27 06:50:00,43.4,30.5,30.27,SSE,161,3.0,11.0,60,0.00,,CLR,0.00,179.00,VWS V15.00,2013-03-27 11:50:00,
2013-03-27 06:53:00,42.3,30.6,30.29,South,172,3.0,7.0,63,0.00,,FEW300,0.00,179.00,VWS V14.01,2013-03-27 11:53:00,
2013-03-27 06:58:00,42.4,31.9,30.29,SSE,167,6.0,7.0,66,0.00,,FEW300,0.00,179.00,VWS V14.01,2013-03-27 11:58:00,
2013-03-27 07:00:00,43.2,30.3,30.27,SW,217,5.0,10.0,60,0.00,,CLR,0.00,179.00,VWS V15.00,2013-03-27 12:00:00,
2013-03-27 07:03:00,42.7,32.2,30.29,East,98,3.0,9.0,66,0.00,,FEW300,0.00,179.00,VWS V14.01,2013-03-27 12:03:00,
2013-03-27 07:08:00,42.8,31.9,30.29,South,178,2.0,10.0,65,0.00,,FEW300,0.00,179.00,VWS V14.01,2013-03-27 12:08:00,
2013-03-27 07:10:00,42.6,30.1,30.27,SSW,206,8.0,10.0,61,0.00,,CLR,0.00,179.00,VWS V15.00,2013-03-27 12:10:00,
2013-03-27 07:13:00,42.8,31.9,30.29,South,178,3.0,7.0,65,0.00,,FEW300,0.00,179.00,VWS V14.01,2013-03-27 12:13:00,
2013-03-27 07:18:00,42.8,31.5,30.30,SSW,210,7.0,11.0,64,0.00,,FEW300,0.00,179.00,VWS V14.01,2013-03-27 12:18:00,
2013-03-27 07:20:00,42.0,30.3,30.28,SSE,153,3.0,10.0,63,0.00,,CLR,0.00,179.00,VWS V15.00,2013-03-27 12:20:00,
2013-03-27 07:23:00,42.6,30.5,30.30,South,176,7.0,9.0,62,0.00,,FEW300,0.00,179.00,VWS V14.01,2013-03-27 12:23:00,
2013-03-27 07:28:00,42.4,29.9,30.30,South,175,6.0,11.0,61,0.00,,FEW300,0.00,179.00,VWS V14.01,2013-03-27 12:28:00,
2013-03-27 07:30:00,41.8,31.3,30.28,SSE,159,5.0,9.0,66,0.00,,CLR,0.00,179.00,VWS V15.00,2013-03-27 12:30:00,
2013-03-27 07:33:00,42.4,29.1,30.30,SSE,161,6.0,11.0,59,0.00,,FEW300,0.00,179.00,VWS V14.01,2013-03-27 12:33:00,
2013-03-27 07:38:00,42.5,30.4,30.30,SSE,165,5.0,11.0,62,0.00,,FEW300,0.00,179.00,VWS V14.01,2013-03-27 12:38:00,
2013-03-27 07:40:00,42.1,31.6,30.28,SE,142,4.0,9.0,66,0.00,,CLR,0.00,179.00,VWS V15.00,2013-03-27 12:40:00,
2013-03-27 07:43:00,42.6,30.5,30.30,SSW,196,5.0,11.0,62,0.00,,FEW300,0.00,179.00,VWS V14.01,2013-03-27 12:43:00,
2013-03-27 07:48:00,42.7,30.6,30.31,South,178,5.0,11.0,62,0.00,,FEW300,0.00,179.00,VWS V14.01,2013-03-27 12:48:00,
2013-03-27 07:50:00,42.3,30.6,30.29,South,175,5.0,11.0,63,0.00,,CLR,0.00,179.00,VWS V15.00,2013-03-27 12:50:00,
2013-03-27 07:53:00,42.8,30.3,30.31,SSW,194,4.0,9.0,61,0.00,,FEW200,0.00,179.00,VWS V14.01,2013-03-27 12:53:00,
2013-03-27 07:58:00,42.8,29.9,30.31,SSE,164,8.0,10.0,60,0.00,,FEW200,0.00,179.00,VWS V14.01,2013-03-27 12:58:00,
2013-03-27 08:00:00,42.5,31.2,30.29,SE,131,9.0,9.0,64,0.00,,CLR,0.00,179.00,VWS V15.00,2013-03-27 13:00:00,
2013-03-27 08:03:00,42.9,30.4,30.31,SSE,153,4.0,7.0,61,0.00,,FEW200,0.00,179.00,VWS V14.01,2013-03-27 13:03:00,
2013-03-27 08:08:00,43.1,31.0,30.31,SSE,150,7.0,11.0,62,0.00,,FEW200,0.00,179.00,VWS V14.01,2013-03-27 13:08:00,
2013-03-27 08:10:00,42.9,32.3,30.29,SSW,195,1.0,10.0,66,0.00,,CLR,0.00,179.00,VWS V15.00,2013-03-27 13:10:00,
2013-03-27 08:13:00,43.3,31.2,30.31,South,176,3.0,10.0,62,0.00,,FEW200,0.00,179.00,VWS V14.01,2013-03-27 13:13:00,
2013-03-27 08:18:00,43.4,30.9,30.31,ESE,105,6.0,11.0,61,0.00,,FEW200,0.00,179.00,VWS V14.01,2013-03-27 13:18:00,
2013-03-27 08:20:00,42.7,31.0,30.30,SSE,167,7.0,11.0,63,0.00,,CLR,0.00,179.00,VWS V15.00,2013-03-27 13:20:00,
2013-03-27 08:23:00,43.6,31.0,30.31,SE,128,5.0,12.0,61,0.00,,FEW200,0.00,179.00,VWS V14.01,2013-03-27 13:23:00,
2013-03-27 08:28:00,43.8,31.2,30.31,South,175,6.0,12.0,61,0.00,,FEW200,0.00,179.00,VWS V14.01,2013-03-27 13:28:00,
2013-03-27 08:30:00,42.3,29.8,30.30,SSE,152,7.0,13.0,61,0.00,,CLR,0.00,179.00,VWS V15.00,2013-03-27 13:30:00,
2013-03-27 08:33:00,44.0,31.0,30.31,South,176,6.0,11.0,60,0.00,,FEW200,0.00,179.00,VWS V14.01,2013-03-27 13:33:00,
2013-03-27 08:38:00,44.2,32.0,30.31,SE,145,10.0,12.0,62,0.00,,FEW200,0.00,179.00,VWS V14.01,2013-03-27 13:38:00,
2013-03-27 08:40:00,42.6,30.5,30.30,South,184,10.0,11.0,62,0.00,,CLR,0.00,179.00,VWS V15.00,2013-03-27 13:40:00,
2013-03-27 08:43:00,44.3,31.3,30.31,East,91,7.0,10.0,60,0.00,,FEW200,0.00,179.00,VWS V14.01,2013-03-27 13:43:00,
2013-03-27 08:48:00,44.6,31.2,30.31,SSE,163,8.0,11.0,59,0.00,,FEW200,0.00,179.00,VWS V14.01,2013-03-27 13:48:00,
2013-03-27 08:50:00,42.7,30.2,30.31,SSE,155,6.0,11.0,61,0.00,,CLR,0.00,179.00,VWS V15.00,2013-03-27 13:50:00,
2013-03-27 08:53:00,44.9,31.0,30.31,South,183,5.0,12.0,58,0.00,,FEW200,0.00,179.00,VWS V14.01,2013-03-27 13:53:00,
2013-03-27 08:58:00,45.4,31.9,30.31,ESE,117,13.0,13.0,59,0.00,,FEW200,0.00,179.00,VWS V14.01,2013-03-27 13:58:00,
2013-03-27 09:00:00,42.8,30.3,30.31,SE,145,4.0,10.0,61,0.00,,CLR,0.00,179.00,VWS V15.00,2013-03-27 14:00:00,
2013-03-27 09:03:00,45.8,31.5,30.30,South,183,7.0,12.0,57,0.00,,FEW200,0.00,179.00,VWS V14.01,2013-03-27 14:03:00,
2013-03-27 09:08:00,46.2,33.1,30.30,SSE,168,9.0,13.0,60,0.00,,FEW200,0.00,179.00,VWS V14.01,2013-03-27 14:08:00,
2013-03-27 09:10:00,43.1,30.6,30.31,SSE,163,3.0,11.0,61,0.00,,CLR,0.00,179.00,VWS V15.00,2013-03-27 14:10:00,
2013-03-27 09:13:00,46.6,33.0,30.30,SSW,194,8.0,10.0,59,0.00,,FEW200,0.00,179.00,VWS V14.01,2013-03-27 14:13:00,
2013-03-27 09:18:00,46.9,32.9,30.32,ESE,113,6.0,13.0,58,0.00,,FEW200,0.00,179.00,VWS V14.01,2013-03-27 14:18:00,
2013-03-27 09:20:00,43.5,31.0,30.31,SE,131,6.0,11.0,61,0.00,,CLR,0.00,179.00,VWS V15.00,2013-03-27 14:20:00,
2013-03-27 09:23:00,47.3,33.3,30.32,SE,142,9.0,10.0,58,0.00,,FEW200,0.00,179.00,VWS V14.01,2013-03-27 14:23:00,
2013-03-27 09:28:00,47.8,32.9,30.32,SSE,167,9.0,12.0,56,0.00,,FEW200,0.00,179.00,VWS V14.01,2013-03-27 14:28:00,
2013-03-27 09:30:00,43.9,31.3,30.31,SE,146,10.0,12.0,61,0.00,,CLR,0.00,179.00,VWS V15.00,2013-03-27 14:30:00,
2013-03-27 09:33:00,48.2,32.3,30.31,South,179,9.0,11.0,54,0.00,,FEW200,0.00,179.00,VWS V14.01,2013-03-27 14:33:00,
2013-03-27 09:38:00,48.7,32.3,30.31,SE,146,11.0,12.0,53,0.00,,FEW220,0.00,179.00,VWS V14.01,2013-03-27 14:38:00,
2013-03-27 09:40:00,44.2,30.8,30.31,South,173,5.0,13.0,59,0.00,,CLR,0.00,179.00,VWS V15.00,2013-03-27 14:40:00,
2013-03-27 09:43:00,49.1,32.7,30.31,SE,129,5.0,12.0,53,0.00,,FEW220,0.00,179.00,VWS V14.01,2013-03-27 14:43:00,
2013-03-27 09:48:00,49.5,33.1,30.32,SE,142,5.0,12.0,53,0.00,,FEW220,0.00,179.00,VWS V14.01,2013-03-27 14:48:00,
2013-03-27 09:50:00,44.8,31.4,30.31,SE,146,6.0,14.0,59,0.00,,CLR,0.00,179.00,VWS V15.00,2013-03-27 14:50:00,
2013-03-27 09:53:00,50.1,33.7,30.32,South,183,4.0,10.0,53,0.00,,FEW220,0.00,179.00,VWS V14.01,2013-03-27 14:53:00,
2013-03-27 09:58:00,50.6,34.6,30.32,SSE,157,7.0,10.0,54,0.00,,FEW220,0.00,179.00,VWS V14.01,2013-03-27 14:58:00,
2013-03-27 10:00:00,45.6,31.7,30.30,SSW,200,6.0,13.0,58,0.00,,OVC019,0.00,179.00,VWS V15.00,2013-03-27 15:00:00,
2013-03-27 10:03:00,50.9,33.9,30.32,SSW,196,5.0,13.0,52,0.00,,FEW220,0.00,179.00,VWS V14.01,2013-03-27 15:03:00,
2013-03-27 10:08:00,51.4,34.9,30.32,SSE,168,9.0,13.0,53,0.00,,FEW220,0.00,179.00,VWS V14.01,2013-03-27 15:08:00,
2013-03-27 10:10:00,46.4,32.9,30.30,South,188,6.0,13.0,59,0.00,,CLR,0.00,179.00,VWS V15.00,2013-03-27 15:10:00,
2013-03-27 10:13:00,51.7,34.7,30.32,SE,126,6.0,10.0,52,0.00,,FEW220,0.00,179.00,VWS V14.01,2013-03-27 15:13:00,
2013-03-27 10:18:00,52.2,36.1,30.31,SSE,157,5.0,10.0,54,0.00,,FEW220,0.00,179.00,VWS V14.01,2013-03-27 15:18:00,
2013-03-27 10:20:00,47.0,32.6,30.32,SSW,192,4.0,13.0,57,0.00,,CLR,0.00,179.00,VWS V15.00,2013-03-27 15:20:00,
2013-03-27 10:23:00,52.8,36.6,30.31,ESE,116,11.0,11.0,54,0.00,,FEW220,0.00,179.00,VWS V14.01,2013-03-27 15:23:00,
2013-03-27 10:28:00,53.4,37.2,30.31,SE,126,10.0,11.0,54,0.00,,FEW220,0.00,179.00,VWS V14.01,2013-03-27 15:28:00,
2013-03-27 10:30:00,48.0,32.6,30.31,SSW,211,4.0,12.0,55,0.00,,CLR,0.00,179.00,VWS V15.00,2013-03-27 15:30:00,
2013-03-27 10:33:00,54.0,36.8,30.31,SSE,160,4.0,11.0,52,0.00,,FEW220,0.00,179.00,VWS V14.01,2013-03-27 15:33:00,
2013-03-27 10:38:00,54.5,37.7,30.31,ESE,111,16.0,16.0,53,0.00,,FEW220,0.00,179.00,VWS V14.01,2013-03-27 15:38:00,
2013-03-27 10:40:00,48.8,32.4,30.31,SSE,165,4.0,12.0,53,0.00,,CLR,0.00,179.00,VWS V15.00,2013-03-27 15:40:00,
2013-03-27 10:43:00,54.8,36.0,30.31,South,183,13.0,17.0,49,0.00,,FEW220,0.00,179.00,VWS V14.01,2013-03-27 15:43:00,
2013-03-27 10:48:00,55.0,36.7,30.30,South,175,9.0,17.0,50,0.00,,FEW220,0.00,179.00,VWS V14.01,2013-03-27 15:48:00,
2013-03-27 10:50:00,49.7,33.3,30.32,South,186,7.0,12.0,53,0.00,,CLR,0.00,179.00,VWS V15.00,2013-03-27 15:50:00,
2013-03-27 10:53:00,55.2,37.4,30.30,SSE,159,11.0,15.0,51,0.00,,FEW220,0.00,179.00,VWS V14.01,2013-03-27 15:53:00,
2013-03-27 10:58:00,55.4,37.6,30.30,SSW,196,15.0,15.0,51,0.00,,FEW220,0.00,179.00,VWS V14.01,2013-03-27 15:58:00,
2013-03-27 11:00:00,50.8,33.8,30.32,SSE,153,7.0,11.0,52,0.00,,CLR,0.00,179.00,VWS V15.00,2013-03-27 16:00:00,
2013-03-27 11:03:00,55.8,36.4,30.30,South,171,6.0,15.0,48,0.00,,FEW220,0.00,179.00,VWS V14.01,2013-03-27 16:03:00,
2013-03-27 11:08:00,56.3,37.4,30.30,South,178,7.0,15.0,49,0.00,,FEW220,0.00,179.00,VWS V14.01,2013-03-27 16:08:00,
2013-03-27 11:10:00,51.5,34.5,30.32,South,172,7.0,13.0,52,0.00,,CLR,0.00,179.00,VWS V15.00,2013-03-27 16:10:00,
2013-03-27 11:13:00,56.5,37.1,30.30,SSW,194,10.0,14.0,48,0.00,,FEW220,0.00,179.00,VWS V14.01,2013-03-27 16:13:00,
2013-03-27 11:18:00,56.8,36.8,30.30,ESE,117,12.0,15.0,47,0.00,,FEW220,0.00,179.00,VWS V14.01,2013-03-27 16:18:00,
2013-03-27 11:20:00,52.4,36.3,30.31,South,169,6.0,13.0,54,0.00,,CLR,0.00,179.00,VWS V15.00,2013-03-27 16:20:00,
2013-03-27 11:23:00,57.0,37.5,30.30,SSW,199,6.0,14.0,48,0.00,,FEW220,0.00,179.00,VWS V14.01,2013-03-27 16:23:00,
2013-03-27 11:28:00,57.2,36.6,30.30,SSE,163,13.0,15.0,46,0.00,,FEW220,0.00,179.00,VWS V14.01,2013-03-27 16:28:00,
2013-03-27 11:30:00,53.7,37.5,30.31,SSE,166,11.0,11.0,54,0.00,,CLR,0.00,179.00,VWS V15.00,2013-03-27 16:30:00,
2013-03-27 11:33:00,57.5,37.5,30.29,SSE,153,6.0,12.0,47,0.00,,FEW220,0.00,179.00,VWS V14.01,2013-03-27 16:33:00,
2013-03-27 11:38:00,58.1,39.1,30.29,SSW,198,13.0,13.0,49,0.00,,FEW250,0.00,179.00,VWS V14.01,2013-03-27 16:38:00,
2013-03-27 11:40:00,54.7,36.4,30.31,South,178,12.0,16.0,50,0.00,,CLR,0.00,179.00,VWS V15.00,2013-03-27 16:40:00,
2013-03-27 11:43:00,58.5,36.7,30.29,ESE,119,11.0,15.0,44,0.00,,FEW250,0.00,179.00,VWS V14.01,2013-03-27 16:43:00,
2013-03-27 11:48:00,59.0,36.0,30.28,SSW,194,7.0,15.0,42,0.00,,FEW250,0.00,179.00,VWS V14.01,2013-03-27 16:48:00,
2013-03-27 11:50:00,55.1,36.3,30.30,SSW,196,9.0,17.0,49,0.00,,CLR,0.00,179.00,VWS V15.00,2013-03-27 16:50:00,
2013-03-27 11:53:00,59.6,37.1,30.28,SSE,157,6.0,11.0,43,0.00,,FEW250,0.00,179.00,VWS V14.01,2013-03-27 16:53:00,
2013-03-27 11:58:00,59.9,37.4,30.28,South,191,6.0,14.0,43,0.00,,FEW250,0.00,179.00,VWS V14.01,2013-03-27 16:58:00,
2013-03-27 12:00:00,55.6,36.8,30.30,South,183,7.0,16.0,49,0.00,,CLR,0.00,179.00,VWS V15.00,2013-03-27 17:00:00,
2013-03-27 12:03:00,60.1,38.1,30.28,SSE,161,10.0,12.0,44,0.00,,FEW250,0.00,179.00,VWS V14.01,2013-03-27 17:03:00,
2013-03-27 12:08:00,60.2,37.0,30.28,SSE,157,13.0,14.0,42,0.00,,FEW250,0.00,179.00,VWS V14.01,2013-03-27 17:08:00,
2013-03-27 12:10:00,56.4,38.0,30.30,SSE,157,10.0,15.0,50,0.00,,CLR,0.00,179.00,VWS V15.00,2013-03-27 17:10:00,
2013-03-27 12:13:00,60.4,37.2,30.28,South,188,9.0,14.0,42,0.00,,FEW250,0.00,179.00,VWS V14.01,2013-03-27 17:13:00,
2013-03-27 12:18:00,60.7,38.1,30.27,SE,128,5.0,14.0,43,0.00,,FEW250,0.00,179.00,VWS V14.01,2013-03-27 17:18:00,
2013-03-27 12:20:00,56.9,36.9,30.30,SSE,165,11.0,15.0,47,0.00,,CLR,0.00,179.00,VWS V15.00,2013-03-27 17:20:00,
2013-03-27 12:23:00,61.2,36.7,30.27,SSW,206,7.0,15.0,40,0.00,,FEW250,0.00,179.00,VWS V14.01,2013-03-27 17:23:00,
2013-03-27 12:28:00,61.1,34.7,30.27,SE,144,7.0,16.0,37,0.00,,FEW250,0.00,179.00,VWS V14.01,2013-03-27 17:28:00,
2013-03-27 12:30:00,57.3,37.3,30.29,SE,146,10.0,15.0,47,0.00,,CLR,0.00,179.00,VWS V15.00,2013-03-27 17:30:00,
2013-03-27 12:33:00,61.4,38.1,30.26,South,175,6.0,11.0,42,0.00,,FEW250,0.00,179.00,VWS V14.01,2013-03-27 17:33:00,
2013-03-27 12:38:00,61.5,37.0,30.26,South,171,7.0,14.0,40,0.00,,FEW250,0.00,179.00,VWS V14.01,2013-03-27 17:38:00,
2013-03-27 12:40:00,58.3,37.6,30.29,South,171,6.0,13.0,46,0.00,,CLR,0.00,179.00,VWS V15.00,2013-03-27 17:40:00,
2013-03-27 12:43:00,61.8,37.9,30.26,SSW,198,4.0,14.0,41,0.00,,FEW250,0.00,179.00,VWS V14.01,2013-03-27 17:43:00,
2013-03-27 12:48:00,61.9,36.0,30.26,SSW,207,6.0,15.0,38,0.00,,FEW250,0.00,179.00,VWS V14.01,2013-03-27 17:48:00,
2013-03-27 12:50:00,59.2,37.3,30.28,SSE,157,7.0,15.0,44,0.00,,CLR,0.00,179.00,VWS V15.00,2013-03-27 17:50:00,
2013-03-27 12:53:00,62.6,39.8,30.26,SSE,158,5.0,12.0,43,0.00,,FEW250,0.00,179.00,VWS V14.01,2013-03-27 17:53:00,
2013-03-27 12:58:00,62.8,38.8,30.26,SE,141,12.0,13.0,41,0.00,,FEW250,0.00,179.00,VWS V14.01,2013-03-27 17:58:00,
2013-03-27 13:00:00,60.0,38.6,30.28,SSW,196,7.0,14.0,45,0.00,,CLR,0.00,179.00,VWS V15.00,2013-03-27 18:00:00,
2013-03-27 13:03:00,62.9,38.2,30.25,ESE,123,9.0,14.0,40,0.00,,FEW250,0.00,179.00,VWS V14.01,2013-03-27 18:03:00,
2013-03-27 13:08:00,63.0,38.3,30.25,SE,127,11.0,14.0,40,0.00,,FEW250,0.00,179.00,VWS V14.01,2013-03-27 18:08:00,
2013-03-27 13:10:00,60.3,37.7,30.28,South,172,8.0,14.0,43,0.00,,CLR,0.00,179.00,VWS V15.00,2013-03-27 18:10:00,
2013-03-27 13:13:00,63.6,39.5,30.25,SE,140,13.0,13.0,41,0.00,,FEW250,0.00,179.00,VWS V14.01,2013-03-27 18:13:00,
2013-03-27 13:18:00,64.0,40.5,30.24,South,180,6.0,13.0,42,0.00,,FEW250,0.00,179.00,VWS V14.01,2013-03-27 18:18:00,
2013-03-27 13:20:00,61.0,36.5,30.27,SSW,195,10.0,14.0,40,0.00,,CLR,0.00,179.00,VWS V15.00,2013-03-27 18:20:00,
2013-03-27 13:23:00,64.0,39.2,30.24,South,186,14.0,16.0,40,0.00,,FEW250,0.00,179.00,VWS V14.01,2013-03-27 18:23:00,
2013-03-27 13:28:00,64.2,40.0,30.24,SSW,203,5.0,17.0,41,0.00,,FEW250,0.00,179.00,VWS V14.01,2013-03-27 18:28:00,
2013-03-27 13:30:00,61.1,36.0,30.26,SE,136,10.0,16.0,39,0.00,,CLR,0.00,179.00,VWS V15.00,2013-03-27 18:30:00,
2013-03-27 13:33:00,64.0,39.2,30.24,SSE,153,10.0,14.0,40,0.00,,FEW250,0.00,179.00,VWS V14.01,2013-03-27 18:33:00,
2013-03-27 13:38:00,64.1,39.9,30.24,SW,218,4.0,15.0,41,0.00,,FEW250,0.00,179.00,VWS V14.01,2013-03-27 18:38:00,
2013-03-27 13:40:00,61.6,37.7,30.26,SSW,195,10.0,14.0,41,0.00,,CLR,0.00,179.00,VWS V15.00,2013-03-27 18:40:00,
2013-03-27 13:43:00,64.7,40.5,30.24,South,183,5.0,9.0,41,0.00,,FEW250,0.00,179.00,VWS V14.01,2013-03-27 18:43:00,
2013-03-27 13:48:00,65.0,40.8,30.22,SSW,196,10.0,12.0,41,0.00,,FEW250,0.00,179.00,VWS V14.01,2013-03-27 18:48:00,
2013-03-27 13:50:00,62.2,39.5,30.26,South,176,5.0,15.0,43,0.00,,CLR,0.00,179.00,VWS V15.00,2013-03-27 18:50:00,
2013-03-27 13:53:00,65.3,40.4,30.22,SE,134,4.0,12.0,40,0.00,,FEW250,0.00,179.00,VWS V14.01,2013-03-27 18:53:00,
2013-03-27 13:58:00,65.5,39.9,30.22,East,101,5.0,15.0,39,0.00,,FEW250,0.00,179.00,VWS V14.01,2013-03-27 18:58:00,
2013-03-27 14:00:00,62.7,38.7,30.25,South,178,7.0,13.0,41,0.00,,CLR,0.00,179.00,VWS V15.00,2013-03-27 19:00:00,
2013-03-27 14:03:00,65.6,39.3,30.22,SSW,194,3.0,11.0,38,0.00,,FEW250,0.00,179.00,VWS V14.01,2013-03-27 19:03:00,
2013-03-27 14:08:00,65.7,40.1,30.22,SSE,149,8.0,12.0,39,0.00,,FEW250,0.00,179.00,VWS V14.01,2013-03-27 19:08:00,
2013-03-27 14:10:00,63.2,39.8,30.25,SW,217,3.0,14.0,42,0.00,,CLR,0.00,179.00,VWS V15.00,2013-03-27 19:10:00,
2013-03-27 14:13:00,66.0,40.4,30.22,SE,133,6.0,12.0,39,0.00,,FEW250,0.00,179.00,VWS V14.01,2013-03-27 19:13:00,
2013-03-27 14:18:00,65.8,38.1,30.20,SW,223,4.0,20.0,36,0.00,,FEW250,0.00,179.00,VWS V14.01,2013-03-27 19:18:00,
2013-03-27 14:20:00,63.9,39.8,30.24,SE,141,7.0,13.0,41,0.00,,CLR,0.00,179.00,VWS V15.00,2013-03-27 19:20:00,
2013-03-27 14:23:00,65.6,41.9,30.20,SSE,165,3.0,12.0,42,0.00,,FEW250,0.00,179.00,VWS V14.01,2013-03-27 19:23:00,
2013-03-27 14:28:00,66.2,38.5,30.20,South,183,10.0,12.0,36,0.00,,FEW250,0.00,179.00,VWS V14.01,2013-03-27 19:28:00,
2013-03-27 14:30:00,64.3,39.5,30.24,SSE,149,10.0,17.0,40,0.00,,CLR,0.00,179.00,VWS V15.00,2013-03-27 19:30:00,
2013-03-27 14:33:00,66.7,41.0,30.19,ESE,122,7.0,11.0,39,0.00,,FEW250,0.00,179.00,VWS V14.01,2013-03-27 19:33:00,
2013-03-27 14:38:00,66.8,40.4,30.19,SE,136,5.0,13.0,38,0.00,,FEW250,0.00,179.00,VWS V14.01,2013-03-27 19:38:00,
2013-03-27 14:40:00,64.3,38.8,30.24,SE,129,4.0,15.0,39,0.00,,CLR,0.00,179.00,VWS V15.00,2013-03-27 19:40:00,
2013-03-27 14:43:00,67.3,42.2,30.19,South,171,7.0,13.0,40,0.00,,FEW250,0.00,179.00,VWS V14.01,2013-03-27 19:43:00,
2013-03-27 14:48:00,67.1,38.6,30.18,SE,146,14.0,15.0,35,0.00,,FEW250,0.00,179.00,VWS V14.01,2013-03-27 19:48:00,
2013-03-27 14:50:00,65.2,39.6,30.22,SE,134,3.0,13.0,39,0.00,,CLR,0.00,179.00,VWS V15.00,2013-03-27 19:50:00,
2013-03-27 14:53:00,67.0,41.2,30.18,South,173,3.0,11.0,39,0.00,,FEW250,0.00,179.00,VWS V14.01,2013-03-27 19:53:00,
2013-03-27 14:58:00,67.2,42.1,30.18,East,94,10.0,12.0,40,0.00,,FEW250,0.00,179.00,VWS V14.01,2013-03-27 19:58:00,
2013-03-27 15:00:00,65.6,40.0,30.22,SSW,202,5.0,15.0,39,0.00,,CLR,0.00,179.00,VWS V15.00,2013-03-27 20:00:00,
2013-03-27 15:03:00,67.5,41.7,30.17,South,181,8.0,12.0,39,0.00,,FEW250,0.00,179.00,VWS V14.01,2013-03-27 20:03:00,
2013-03-27 15:08:00,67.0,40.6,30.17,South,188,7.0,17.0,38,0.00,,FEW250,0.00,179.00,VWS V14.01,2013-03-27 20:08:00,
2013-03-27 15:10:00,65.8,38.8,30.22,South,191,5.0,12.0,37,0.00,,CLR,0.00,179.00,VWS V15.00,2013-03-27 20:10:00,
2013-03-27 15:13:00,67.1,43.3,30.17,SSW,213,12.0,12.0,42,0.00,,FEW250,0.00,179.00,VWS V14.01,2013-03-27 20:13:00,
2013-03-27 15:18:00,67.3,42.8,30.16,SSE,165,4.0,12.0,41,0.00,,FEW250,0.00,179.00,VWS V14.01,2013-03-27 20:18:00,
2013-03-27 15:20:00,65.6,38.0,30.20,SE,125,9.0,20.0,36,0.00,,CLR,0.00,179.00,VWS V15.00,2013-03-27 20:20:00,
2013-03-27 15:23:00,67.3,42.8,30.16,South,186,6.0,9.0,41,0.00,,FEW250,0.00,179.00,VWS V14.01,2013-03-27 20:23:00,
2013-03-27 15:28:00,67.5,42.3,30.16,SSE,167,9.0,12.0,40,0.00,,FEW250,0.00,179.00,VWS V14.01,2013-03-27 20:28:00,
2013-03-27 15:30:00,66.3,40.0,30.19,South,172,2.0,12.0,38,0.00,,CLR,0.00,179.00,VWS V15.00,2013-03-27 20:30:00,
2013-03-27 15:33:00,67.2,42.7,30.16,SSE,155,4.0,12.0,41,0.00,,FEW250,0.00,179.00,VWS V14.01,2013-03-27 20:33:00,
2013-03-27 15:38:00,67.4,41.6,30.16,SSW,207,7.0,12.0,39,0.00,,SCT250,0.00,179.00,VWS V14.01,2013-03-27 20:38:00,
2013-03-27 15:40:00,67.1,41.3,30.19,SE,145,4.0,13.0,39,0.00,,CLR,0.00,179.00,VWS V15.00,2013-03-27 20:40:00,
2013-03-27 15:43:00,67.2,44.0,30.16,SSW,198,7.0,15.0,43,0.00,,SCT250,0.00,179.00,VWS V14.01,2013-03-27 20:43:00,
2013-03-27 15:48:00,67.7,41.2,30.14,SSE,165,9.0,16.0,38,0.00,,SCT250,0.00,179.00,VWS V14.01,2013-03-27 20:48:00,
2013-03-27 15:50:00,66.9,38.4,30.18,SSE,155,10.0,15.0,35,0.00,,CLR,0.00,179.00,VWS V15.00,2013-03-27 20:50:00,
2013-03-27 15:53:00,68.2,43.0,30.14,SSE,163,8.0,14.0,40,0.00,,SCT250,0.00,179.00,VWS V14.01,2013-03-27 20:53:00,
2013-03-27 15:58:00,68.0,41.5,30.14,SSE,168,10.0,18.0,38,0.00,,SCT250,0.00,179.00,VWS V14.01,2013-03-27 20:58:00,
2013-03-27 16:03:00,68.4,41.8,30.14,SW,215,5.0,12.0,38,0.00,,SCT250,0.00,179.00,VWS V14.01,2013-03-27 21:03:00,
2013-03-27 16:08:00,68.4,40.4,30.14,SSW,210,11.0,17.0,36,0.00,,SCT250,0.00,179.00,VWS V14.01,2013-03-27 21:08:00,
2013-03-27 16:10:00,66.9,41.8,30.17,SSE,165,5.0,17.0,40,0.00,,CLR,0.00,179.00,VWS V15.00,2013-03-27 21:10:00,
2013-03-27 16:13:00,68.0,41.5,30.14,SSE,153,13.0,18.0,38,0.00,,SCT250,0.00,179.00,VWS V14.01,2013-03-27 21:13:00,
2013-03-27 16:18:00,67.9,42.1,30.13,South,186,10.0,18.0,39,0.00,,SCT250,0.00,179.00,VWS V14.01,2013-03-27 21:18:00,
2013-03-27 16:20:00,67.4,42.9,30.16,SSW,198,4.0,12.0,41,0.00,,CLR,0.00,179.00,VWS V15.00,2013-03-27 21:20:00,
2013-03-27 16:23:00,68.2,40.2,30.13,SSE,163,11.0,23.0,36,0.00,,SCT250,0.00,179.00,VWS V14.01,2013-03-27 21:23:00,
2013-03-27 16:28:00,68.1,40.2,30.13,South,180,9.0,23.0,36,0.00,,SCT250,0.00,179.00,VWS V14.01,2013-03-27 21:28:00,
2013-03-27 16:30:00,67.4,40.9,30.16,SSW,192,7.0,13.0,38,0.00,,OVC019,0.00,179.00,VWS V15.00,2013-03-27 21:30:00,
2013-03-27 16:33:00,68.4,41.8,30.12,ESE,117,14.0,14.0,38,0.00,,SCT250,0.00,179.00,VWS V14.01,2013-03-27 21:33:00,
2013-03-27 16:38:00,68.2,42.3,30.12,South,184,11.0,18.0,39,0.00,,SCT250,0.00,179.00,VWS V14.01,2013-03-27 21:38:00,
2013-03-27 16:40:00,67.4,41.6,30.16,South,188,12.0,19.0,39,0.00,,CLR,0.00,179.00,VWS V15.00,2013-03-27 21:40:00,
2013-03-27 16:43:00,68.3,42.4,30.12,ESE,117,5.0,15.0,39,0.00,,SCT250,0.00,179.00,VWS V14.01,2013-03-27 21:43:00,
2013-03-27 16:48:00,68.3,43.1,30.11,SSW,203,6.0,15.0,40,0.00,,SCT250,0.00,179.00,VWS V14.01,2013-03-27 21:48:00,
2013-03-27 16:53:00,68.1,41.6,30.11,South,173,9.0,15.0,38,0.00,,SCT250,0.00,179.00,VWS V14.01,2013-03-27 21:53:00,
2013-03-27 16:58:00,68.3,41.7,30.11,SSE,152,14.0,15.0,38,0.00,,SCT250,0.00,179.00,VWS V14.01,2013-03-27 21:58:00,
2013-03-27 17:00:00,68.1,41.6,30.14,SSE,167,9.0,18.0,38,0.00,,CLR,0.00,179.00,VWS V15.00,2013-03-27 22:00:00,
2013-03-27 17:03:00,67.9,44.0,30.11,South,173,6.0,15.0,42,0.00,,SCT250,0.00,179.00,VWS V14.01,2013-03-27 22:03:00,
2013-03-27 17:08:00,67.8,43.3,30.11,SE,146,10.0,16.0,41,0.00,,SCT250,0.00,179.00,VWS V14.01,2013-03-27 22:08:00,
2013-03-27 17:13:00,67.9,41.4,30.11,SE,124,9.0,16.0,38,0.00,,SCT250,0.00,179.00,VWS V14.01,2013-03-27 22:13:00,
2013-03-27 17:18:00,67.9,43.4,30.10,SSW,203,8.0,16.0,41,0.00,,SCT250,0.00,179.00,VWS V14.01,2013-03-27 22:18:00,
2013-03-27 17:20:00,68.0,41.5,30.13,SSE,158,9.0,18.0,38,0.00,,OVC019,0.00,179.00,VWS V15.00,2013-03-27 22:20:00,
2013-03-27 17:23:00,67.6,44.3,30.10,South,169,7.0,11.0,43,0.00,,SCT250,0.00,179.00,VWS V14.01,2013-03-27 22:23:00,
2013-03-27 17:28:00,67.5,44.2,30.10,South,180,11.0,13.0,43,0.00,,SCT250,0.00,179.00,VWS V14.01,2013-03-27 22:28:00,
2013-03-27 17:30:00,68.2,41.0,30.12,SSE,159,9.0,23.0,37,0.00,,CLR,0.00,179.00,VWS V15.00,2013-03-27 22:30:00,
2013-03-27 17:33:00,67.5,42.3,30.10,SSE,165,9.0,16.0,40,0.00,,SCT250,0.00,179.00,VWS V14.01,2013-03-27 22:33:00,
2013-03-27 17:38:00,67.5,43.0,30.10,SE,136,12.0,17.0,41,0.00,,SCT250,0.00,179.00,VWS V14.01,2013-03-27 22:38:00,
2013-03-27 17:40:00,68.2,43.0,30.12,SSE,147,11.0,18.0,40,0.00,,CLR,0.00,179.00,VWS V15.00,2013-03-27 22:40:00,
2013-03-27 17:43:00,67.8,43.3,30.10,SSE,165,6.0,11.0,41,0.00,,SCT250,0.00,179.00,VWS V14.01,2013-03-27 22:43:00,
2013-03-27 17:48:00,67.8,44.5,30.10,SSE,155,7.0,13.0,43,0.00,,SCT250,0.00,179.00,VWS V14.01,2013-03-27 22:48:00,
2013-03-27 17:50:00,68.1,42.2,30.11,SSE,155,14.0,15.0,39,0.00,,CLR,0.00,179.00,VWS V15.00,2013-03-27 22:50:00,
2013-03-27 17:53:00,67.6,41.8,30.10,South,173,13.0,19.0,39,0.00,,SCT250,0.00,179.00,VWS V14.01,2013-03-27 22:53:00,
2013-03-27 17:58:00,67.9,42.7,30.10,South,186,9.0,19.0,40,0.00,,SCT250,0.00,179.00,VWS V14.01,2013-03-27 22:58:00,
2013-03-27 18:00:00,68.2,42.3,30.11,SE,144,10.0,17.0,39,0.00,,CLR,0.00,179.00,VWS V15.00,2013-03-27 23:00:00,
2013-03-27 18:03:00,68.2,42.3,30.09,SSW,195,15.0,15.0,39,0.00,,SCT250,0.00,179.00,VWS V14.01,2013-03-27 23:03:00,
2013-03-27 18:08:00,68.1,42.2,30.09,SSW,198,6.0,20.0,39,0.00,,SCT250,0.00,179.00,VWS V14.01,2013-03-27 23:08:00,
2013-03-27 18:10:00,67.7,41.9,30.11,South,183,7.0,18.0,39,0.00,,CLR,0.00,179.00,VWS V15.00,2013-03-27 23:10:00,
2013-03-27 18:13:00,68.1,42.9,30.09,ESE,111,5.0,12.0,40,0.00,,SCT250,0.00,179.00,VWS V14.01,2013-03-27 23:13:00,
2013-03-27 18:18:00,67.6,43.7,30.09,SE,138,11.0,17.0,42,0.00,,SCT250,0.00,179.00,VWS V14.01,2013-03-27 23:18:00,
2013-03-27 18:20:00,67.8,43.9,30.10,SSE,165,7.0,16.0,42,0.00,,CLR,0.00,179.00,VWS V15.00,2013-03-27 23:20:00,
2013-03-27 18:23:00,67.6,41.8,30.09,South,184,15.0,16.0,39,0.00,,SCT250,0.00,179.00,VWS V14.01,2013-03-27 23:23:00,
2013-03-27 18:28:00,67.5,41.7,30.09,SSE,165,11.0,18.0,39,0.00,,SCT250,0.00,179.00,VWS V14.01,2013-03-27 23:28:00,
2013-03-27 18:30:00,67.5,43.6,30.10,SSE,160,14.0,14.0,42,0.00,,CLR,0.00,179.00,VWS V15.00,2013-03-27 23:30:00,
2013-03-27 18:33:00,67.5,42.3,30.09,South,181,12.0,15.0,40,0.00,,SCT250,0.00,179.00,VWS V14.01,2013-03-27 23:33:00,
2013-03-27 18:38:00,67.2,43.4,30.09,SSW,205,12.0,15.0,42,0.00,,SCT250,0.00,179.00,VWS V14.01,2013-03-27 23:38:00,
2013-03-27 18:40:00,67.6,41.8,30.10,SSE,147,10.0,17.0,39,0.00,,CLR,0.00,179.00,VWS V15.00,2013-03-27 23:40:00,
2013-03-27 18:43:00,67.1,42.6,30.09,SSW,210,7.0,15.0,41,0.00,,SCT250,0.00,179.00,VWS V14.01,2013-03-27 23:43:00,
2013-03-27 18:48:00,67.2,42.7,30.09,South,187,9.0,15.0,41,0.00,,SCT250,0.00,179.00,VWS V14.01,2013-03-27 23:48:00,
2013-03-27 18:50:00,67.6,43.7,30.10,South,182,4.0,13.0,42,0.00,,CLR,0.00,179.00,VWS V15.00,2013-03-27 23:50:00,
2013-03-27 18:53:00,66.7,45.3,30.09,SSW,211,11.0,13.0,46,0.00,,SCT250,0.00,179.00,VWS V14.01,2013-03-27 23:53:00,
2013-03-27 18:58:00,66.1,44.2,30.09,SSE,160,6.0,13.0,45,0.00,,SCT250,0.00,179.00,VWS V14.01,2013-03-27 23:58:00,
2013-03-27 19:00:00,68.0,41.5,30.09,SSE,165,12.0,19.0,38,0.00,,CLR,0.00,179.00,VWS V15.00,2013-03-28 00:00:00,
2013-03-27 19:03:00,66.1,44.2,30.09,SSW,198,11.0,13.0,45,0.00,,SCT250,0.00,179.00,VWS V14.01,2013-03-28 00:03:00,
2013-03-27 19:08:00,66.4,42.0,30.09,SSE,160,7.0,14.0,41,0.00,,SCT250,0.00,179.00,VWS V14.01,2013-03-28 00:08:00,
2013-03-27 19:10:00,68.1,42.2,30.09,South,181,10.0,20.0,39,0.00,,CLR,0.00,179.00,VWS V15.00,2013-03-28 00:10:00,
2013-03-27 19:13:00,66.6,42.2,30.09,SSW,193,7.0,15.0,41,0.00,,SCT250,0.00,179.00,VWS V14.01,2013-03-28 00:13:00,
2013-03-27 19:18:00,66.7,42.9,30.09,South,182,7.0,15.0,42,0.00,,SCT250,0.00,179.00,VWS V14.01,2013-03-28 00:18:00,
2013-03-27 19:20:00,67.6,42.4,30.09,SSW,199,12.0,17.0,40,0.00,,CLR,0.00,179.00,VWS V15.00,2013-03-28 00:20:00,
2013-03-27 19:23:00,66.4,43.2,30.09,South,188,5.0,14.0,43,0.00,,SCT250,0.00,179.00,VWS V14.01,2013-03-28 00:23:00,
2013-03-27 19:28:00,66.0,42.9,30.09,SSE,155,5.0,14.0,43,0.00,,SCT250,0.00,179.00,VWS V14.01,2013-03-28 00:28:00,
2013-03-27 19:30:00,67.5,43.0,30.09,South,186,12.0,18.0,41,0.00,,CLR,0.00,179.00,VWS V15.00,2013-03-28 00:30:00,
2013-03-27 19:33:00,65.7,44.9,30.09,SSE,157,11.0,11.0,47,0.00,,SCT250,0.00,179.00,VWS V14.01,2013-03-28 00:33:00,
2013-03-27 19:38:00,65.0,44.3,30.09,SSW,195,6.0,13.0,47,0.00,,SCT250,0.00,179.00,VWS V14.01,2013-03-28 00:38:00,
2013-03-27 19:40:00,67.1,43.9,30.09,South,175,13.0,15.0,43,0.00,,CLR,0.00,179.00,VWS V15.00,2013-03-28 00:40:00,
2013-03-27 19:43:00,64.9,43.7,30.09,South,173,12.0,13.0,46,0.00,,SCT250,0.00,179.00,VWS V14.01,2013-03-28 00:43:00,
2013-03-27 19:48:00,64.7,44.0,30.08,SSW,196,5.0,13.0,47,0.00,,SCT250,0.00,179.00,VWS V14.01,2013-03-28 00:48:00,
2013-03-27 19:50:00,67.1,43.3,30.09,South,186,12.0,15.0,42,0.00,,CLR,0.00,179.00,VWS V15.00,2013-03-28 00:50:00,
2013-03-27 19:53:00,64.5,43.8,30.08,SE,136,7.0,13.0,47,0.00,,SCT250,0.00,179.00,VWS V14.01,2013-03-28 00:53:00,
2013-03-27 19:58:00,64.3,44.8,30.08,SW,214,7.0,14.0,49,0.00,,SCT250,0.00,179.00,VWS V14.01,2013-03-28 00:58:00,
2013-03-27 20:00:00,66.1,43.6,30.09,South,176,7.0,13.0,44,0.00,,CLR,0.00,179.00,VWS V15.00,2013-03-28 01:00:00,
2013-03-27 20:03:00,63.9,45.4,30.08,South,179,7.0,10.0,51,0.00,,SCT250,0.00,179.00,VWS V14.01,2013-03-28 01:03:00,
2013-03-27 20:08:00,63.6,46.2,30.08,SSE,149,6.0,12.0,53,0.00,,SCT250,0.00,179.00,VWS V14.01,2013-03-28 01:08:00,
2013-03-27 20:10:00,66.5,42.7,30.09,South,184,9.0,14.0,42,0.00,,CLR,0.00,179.00,VWS V15.00,2013-03-28 01:10:00,
2013-03-27 20:13:00,63.2,46.3,30.08,SSE,155,5.0,9.0,54,0.00,,SCT250,0.00,179.00,VWS V14.01,2013-03-28 01:13:00,
2013-03-27 20:18:00,62.8,46.4,30.09,SSE,168,5.0,9.0,55,0.00,,SCT250,0.00,179.00,VWS V14.01,2013-03-28 01:18:00,
2013-03-27 20:20:00,66.6,42.8,30.09,SW,219,4.0,15.0,42,0.00,,CLR,0.00,179.00,VWS V15.00,2013-03-28 01:20:00,
2013-03-27 20:23:00,62.4,46.0,30.09,South,171,5.0,7.0,55,0.00,,SCT250,0.00,179.00,VWS V14.01,2013-03-28 01:23:00,
2013-03-27 20:28:00,62.1,46.7,30.09,SSE,167,3.0,7.0,57,0.00,,SCT250,0.00,179.00,VWS V14.01,2013-03-28 01:28:00,
2013-03-27 20:30:00,65.9,42.8,30.09,SSW,211,6.0,14.0,43,0.00,,CLR,0.00,179.00,VWS V15.00,2013-03-28 01:30:00,
2013-03-27 20:33:00,61.7,46.3,30.09,SSW,202,3.0,5.0,57,0.00,,SCT250,0.00,179.00,VWS V14.01,2013-03-28 01:33:00,
2013-03-27 20:38:00,61.6,46.7,30.09,SSW,206,3.0,5.0,58,0.00,,SCT250,0.00,179.00,VWS V14.01,2013-03-28 01:38:00,
2013-03-27 20:40:00,64.9,43.7,30.09,South,182,13.0,13.0,46,0.00,,CLR,0.00,179.00,VWS V15.00,2013-03-28 01:40:00,
2013-03-27 20:43:00,61.4,46.5,30.09,South,178,2.0,4.0,58,0.00,,SCT250,0.00,179.00,VWS V14.01,2013-03-28 01:43:00,
2013-03-27 20:48:00,61.2,45.9,30.11,SSW,198,2.0,4.0,57,0.00,,SCT250,0.00,179.00,VWS V14.01,2013-03-28 01:48:00,
2013-03-27 20:50:00,64.6,43.9,30.08,SSE,163,6.0,13.0,47,0.00,,CLR,0.00,179.00,VWS V15.00,2013-03-28 01:50:00,
2013-03-27 20:53:00,61.0,46.6,30.11,ESE,109,1.0,2.0,59,0.00,,SCT250,0.00,179.00,VWS V14.01,2013-03-28 01:53:00,
2013-03-27 20:58:00,60.6,47.1,30.11,SSE,152,1.0,4.0,61,0.00,,SCT250,0.00,179.00,VWS V14.01,2013-03-28 01:58:00,
2013-03-27 21:00:00,64.2,44.7,30.08,SSE,165,5.0,14.0,49,0.00,,CLR,0.00,179.00,VWS V15.00,2013-03-28 02:00:00,
2013-03-27 21:03:00,60.3,47.7,30.11,SE,145,2.0,4.0,63,0.00,,SCT250,0.00,179.00,VWS V14.01,2013-03-28 02:03:00,
2013-03-27 21:08:00,60.0,47.4,30.11,SE,126,2.0,5.0,63,0.00,,SCT250,0.00,179.00,VWS V14.01,2013-03-28 02:08:00,
2013-03-27 21:10:00,63.4,45.5,30.08,SSW,200,5.0,12.0,52,0.00,,CLR,0.00,179.00,VWS V15.00,2013-03-28 02:10:00,
2013-03-27 21:14:00,59.9,46.4,30.11,SE,127,0.0,2.0,61,0.00,,SCT250,0.00,179.00,VWS V14.01,2013-03-28 02:14:00,
2013-03-27 21:19:00,59.7,44.9,30.12,SE,126,2.0,2.0,58,0.00,,SCT250,0.00,179.00,VWS V14.01,2013-03-28 02:19:00,
2013-03-27 21:20:00,62.7,46.3,30.09,South,186,4.0,9.0,55,0.00,,CLR,0.00,179.00,VWS V15.00,2013-03-28 02:20:00,
2013-03-27 21:24:00,59.5,43.8,30.12,SSE,152,0.0,3.0,56,0.00,,SCT250,0.00,179.00,VWS V14.01,2013-03-28 02:24:00,
2013-03-27 21:29:00,59.3,43.6,30.12,SE,132,1.0,3.0,56,0.00,,SCT250,0.00,179.00,VWS V14.01,2013-03-28 02:29:00,
2013-03-27 21:30:00,62.0,46.6,30.09,SSE,160,2.0,7.0,57,0.00,,CLR,0.00,179.00,VWS V15.00,2013-03-28 02:30:00,
2013-03-27 21:34:00,59.0,43.3,30.12,SE,126,2.0,3.0,56,0.00,,SCT250,0.00,179.00,VWS V14.01,2013-03-28 02:34:00,
2013-03-27 21:39:00,58.8,44.1,30.12,ESE,110,1.0,4.0,58,0.00,,SCT250,0.00,179.00,VWS V14.01,2013-03-28 02:39:00,
2013-03-27 21:40:00,61.5,46.6,30.09,SSE,167,3.0,5.0,58,0.00,,CLR,0.00,179.00,VWS V15.00,2013-03-28 02:40:00,
2013-03-27 21:44:00,58.6,43.9,30.12,SE,134,3.0,5.0,58,0.00,,SCT250,0.00,179.00,VWS V14.01,2013-03-28 02:44:00,
2013-03-27 21:49:00,58.6,44.8,30.13,SSE,167,2.0,5.0,60,0.00,,SCT250,0.00,179.00,VWS V14.01,2013-03-28 02:49:00,
2013-03-27 21:50:00,61.2,46.3,30.11,SSE,161,2.0,4.0,58,0.00,,CLR,0.00,179.00,VWS V15.00,2013-03-28 02:50:00,
2013-03-27 21:54:00,58.5,45.1,30.13,ESE,103,3.0,5.0,61,0.00,,SCT250,0.00,179.00,VWS V14.01,2013-03-28 02:54:00,
2013-03-27 21:59:00,58.5,44.7,30.13,SSE,153,4.0,5.0,60,0.00,,SCT250,0.00,179.00,VWS V14.01,2013-03-28 02:59:00,
2013-03-27 22:00:00,60.5,47.4,30.11,SSE,150,1.0,4.0,62,0.00,,CLR,0.00,179.00,VWS V15.00,2013-03-28 03:00:00,
2013-03-27 22:04:00,58.5,45.1,30.14,ESE,111,3.0,5.0,61,0.00,,SCT250,0.00,179.00,VWS V14.01,2013-03-28 03:04:00,
2013-03-27 22:09:00,58.4,45.0,30.14,SSE,155,2.0,6.0,61,0.00,,SCT250,0.00,179.00,VWS V14.01,2013-03-28 03:09:00,
2013-03-27 22:10:00,60.0,47.4,30.11,SSE,155,2.0,5.0,63,0.00,,CLR,0.00,179.00,VWS V15.00,2013-03-28 03:10:00,
2013-03-27 22:14:00,58.2,45.7,30.14,SE,134,2.0,4.0,63,0.00,,SCT250,0.00,179.00,VWS V14.01,2013-03-28 03:14:00,
2013-03-27 22:19:00,58.0,45.9,30.14,SSE,153,3.0,5.0,64,0.00,,SCT250,0.00,179.00,VWS V14.01,2013-03-28 03:19:00,
2013-03-27 22:24:00,58.1,46.0,30.14,SSE,163,2.0,6.0,64,0.00,,SCT250,0.00,179.00,VWS V14.01,2013-03-28 03:24:00,
2013-03-27 22:29:00,58.0,45.9,30.14,SE,139,1.0,6.0,64,0.00,,SCT250,0.00,179.00,VWS V14.01,2013-03-28 03:29:00,
2013-03-27 22:30:00,59.2,43.5,30.12,East,101,2.0,3.0,56,0.00,,CLR,0.00,179.00,VWS V15.00,2013-03-28 03:30:00,
2013-03-27 22:34:00,57.8,46.1,30.14,ESE,117,2.0,4.0,65,0.00,,SCT250,0.00,179.00,VWS V14.01,2013-03-28 03:34:00,
2013-03-27 22:39:00,57.7,46.4,30.14,ESE,121,3.0,5.0,66,0.00,,SCT260,0.00,179.00,VWS V14.01,2013-03-28 03:39:00,
2013-03-27 22:40:00,58.7,44.0,30.12,SSE,157,1.0,4.0,58,0.00,,CLR,0.00,179.00,VWS V15.00,2013-03-28 03:40:00,
2013-03-27 22:44:00,57.6,46.3,30.14,ESE,117,3.0,5.0,66,0.00,,SCT260,0.00,179.00,VWS V14.01,2013-03-28 03:44:00,
2013-03-27 22:49:00,57.5,46.2,30.14,SSE,164,3.0,6.0,66,0.00,,SCT260,0.00,179.00,VWS V14.01,2013-03-28 03:49:00,
2013-03-27 22:50:00,58.5,44.7,30.13,SSE,149,2.0,6.0,60,0.00,,CLR,0.00,179.00,VWS V15.00,2013-03-28 03:50:00,
2013-03-27 22:54:00,57.2,46.4,30.14,SE,135,3.0,5.0,67,0.00,,SCT260,0.00,179.00,VWS V14.01,2013-03-28 03:54:00,
2013-03-27 22:59:00,57.0,46.9,30.14,SSE,155,1.0,5.0,69,0.00,,SCT260,0.00,179.00,VWS V14.01,2013-03-28 03:59:00,
2013-03-27 23:00:00,57.0,46.9,30.14,SE,144,2.0,5.0,69,0.00,,SCT260,0.00,179.00,VWS V14.01,2013-03-28 04:00:00,
2013-03-27 23:05:00,56.9,46.8,30.14,SSE,153,3.0,5.0,69,0.00,,SCT260,0.00,179.00,VWS V14.01,2013-03-28 04:05:00,
2013-03-27 23:10:00,56.8,46.8,30.14,SSE,155,3.0,5.0,69,0.00,,SCT260,0.00,179.00,VWS V14.01,2013-03-28 04:10:00,
2013-03-27 23:15:00,56.7,46.7,30.14,ESE,119,4.0,5.0,69,0.00,,SCT260,0.00,179.00,VWS V14.01,2013-03-28 04:15:00,
2013-03-27 23:20:00,56.5,46.1,30.14,SE,144,2.0,5.0,68,0.00,,SCT260,0.00,179.00,VWS V14.01,2013-03-28 04:20:00,
2013-03-27 23:25:00,56.4,46.4,30.14,SSE,149,2.0,3.0,69,0.00,,SCT260,0.00,179.00,VWS V14.01,2013-03-28 04:25:00,
2013-03-27 23:30:00,56.2,46.6,30.15,SSE,159,1.0,5.0,70,0.00,,SCT260,0.00,179.00,VWS V14.01,2013-03-28 04:30:00,
2013-03-27 23:35:00,56.1,46.8,30.15,SSE,148,2.0,6.0,71,0.00,,SCT260,0.00,179.00,VWS V14.01,2013-03-28 04:35:00,
2013-03-27 23:40:00,55.9,47.0,30.15,SSE,151,1.0,6.0,72,0.00,,SCT260,0.00,179.00,VWS V14.01,2013-03-28 04:40:00,
2013-03-27 23:45:00,55.7,48.3,30.15,SSE,155,3.0,3.0,76,0.00,,SCT260,0.00,179.00,VWS V14.01,2013-03-28 04:45:00,
2013-03-27 23:50:00,55.5,47.0,30.15,SSE,155,1.0,3.0,73,0.00,,SCT260,0.00,179.00,VWS V14.01,2013-03-28 04:50:00,
2013-03-27 23:55:00,55.5,46.3,30.15,SSE,160,3.0,4.0,71,0.00,,SCT260,0.00,179.00,VWS V14.01,2013-03-28 04:55:00,